createdAt,value
2023-02-23T00:00:21.311Z,9.75
2023-02-23T00:05:47.206Z,9.73
2023-02-23T00:10:58.556Z,9.63
2023-02-23T00:16:06.418Z,9.38
2023-02-23T00:21:15.352Z,9.05
2023-02-23T00:26:21.174Z,9.20
2023-02-23T00:31:27.344Z,9.68
2023-02-23T00:36:35.693Z,8.70
2023-02-23T00:41:40.801Z,9.85
2023-02-23T00:46:49.189Z,9.60
2023-02-23T00:51:55.141Z,9.70
2023-02-23T00:56:59.573Z,9.43
2023-02-23T01:02:05.384Z,10.18
2023-02-23T01:07:13.143Z,9.65
2023-02-23T01:12:19.229Z,8.95
2023-02-23T01:17:23.642Z,9.70
2023-02-23T01:22:29.601Z,9.65
2023-02-23T01:27:35.631Z,10.57
2023-02-23T01:32:40.665Z,11.90
2023-02-23T01:37:46.656Z,11.73
2023-02-23T01:42:51.604Z,11.88
2023-02-23T01:48:01.761Z,11.48
2023-02-23T01:53:07.924Z,10.00
2023-02-23T01:58:16.492Z,11.40
2023-02-23T02:03:27.390Z,10.88
2023-02-23T02:08:35.388Z,10.80
2023-02-23T02:13:40.897Z,11.15
2023-02-23T02:25:02.584Z,10.30
2023-02-23T02:30:35.699Z,10.27
2023-02-23T02:36:18.441Z,11.82
2023-02-23T02:41:35.623Z,10.63
2023-02-23T02:46:42.636Z,11.23
2023-02-23T02:51:54.136Z,12.10
2023-02-23T02:57:04.565Z,12.18
2023-02-23T03:02:34.943Z,11.35
2023-02-23T03:08:03.810Z,10.38
2023-02-23T03:13:39.580Z,11.05
2023-02-23T03:19:21.892Z,10.95
2023-02-23T03:24:54.319Z,11.63
2023-02-23T03:30:22.788Z,11.20
2023-02-23T03:35:48.714Z,11.48
2023-02-23T03:41:13.943Z,11.00
2023-02-23T03:46:38.716Z,11.43
2023-02-23T03:52:05.248Z,12.05
2023-02-23T03:57:31.310Z,11.50
2023-02-23T04:02:58.336Z,11.63
2023-02-23T04:08:22.407Z,11.57
2023-02-23T04:13:28.608Z,10.80
2023-02-23T04:18:36.756Z,10.93
2023-02-23T04:23:43.833Z,11.55
2023-02-23T04:28:48.355Z,11.27
2023-02-23T04:33:55.020Z,10.88
2023-02-23T04:38:59.542Z,11.88
2023-02-23T04:44:04.211Z,11.68
2023-02-23T04:49:10.604Z,11.45
2023-02-23T04:54:15.242Z,12.05
2023-02-23T04:59:19.872Z,12.27
2023-02-23T05:04:25.954Z,12.40
2023-02-23T05:09:30.448Z,12.85
2023-02-23T05:14:34.996Z,12.27
2023-02-23T05:19:41.826Z,11.75
2023-02-23T05:24:46.769Z,13.23
2023-02-23T05:29:51.303Z,11.50
2023-02-23T05:34:57.350Z,11.70
2023-02-23T05:40:02.120Z,11.82
2023-02-23T05:45:07.811Z,11.18
2023-02-23T05:55:18.529Z,13.98
2023-02-23T06:00:24.541Z,13.27
2023-02-23T06:10:40.110Z,8.75
2023-02-23T06:15:45.750Z,9.63
2023-02-23T06:20:51.746Z,12.80
2023-02-23T06:25:56.440Z,10.35
2023-02-23T06:31:01.069Z,9.57
2023-02-23T06:36:11.093Z,8.43
2023-02-23T06:41:19.056Z,9.10
2023-02-23T06:46:27.326Z,9.00
2023-02-23T06:51:37.022Z,8.45
2023-02-23T06:56:47.192Z,8.27
2023-02-23T07:01:55.477Z,8.77
2023-02-23T07:07:13.780Z,8.45
2023-02-23T07:12:19.747Z,8.93
2023-02-23T07:17:24.447Z,7.43
2023-02-23T07:22:30.701Z,9.50
2023-02-23T07:27:35.593Z,12.40
2023-02-23T07:32:40.321Z,8.60
2023-02-23T07:37:46.497Z,8.77
2023-02-23T07:42:51.181Z,8.55
2023-02-23T07:47:55.991Z,9.33
2023-02-23T07:53:02.130Z,9.55
2023-02-23T07:58:06.901Z,10.48
2023-02-23T08:03:11.383Z,8.85
2023-02-23T08:08:17.673Z,8.95
2023-02-23T08:13:22.226Z,8.13
2023-02-23T08:18:27.943Z,8.13
2023-02-23T08:23:34.930Z,9.88
2023-02-23T08:28:41.909Z,8.32
2023-02-23T08:33:46.348Z,9.68
2023-02-23T08:38:54.334Z,9.23
2023-02-23T08:44:00.400Z,8.73
2023-02-23T08:49:06.084Z,9.23
2023-02-23T08:54:14.790Z,9.70
2023-02-23T08:59:19.362Z,8.57
2023-02-23T09:04:23.922Z,8.30
2023-02-23T09:09:29.845Z,8.93
2023-02-23T09:14:36.211Z,10.55
2023-02-23T09:19:41.021Z,9.25
2023-02-23T09:24:47.496Z,11.77
2023-02-23T09:29:52.103Z,10.90
2023-02-23T09:34:56.514Z,9.43
2023-02-23T09:40:03.581Z,8.95
2023-02-23T09:45:24.119Z,9.40
2023-02-23T09:50:31.575Z,9.43
2023-02-23T09:55:42.312Z,9.65
2023-02-23T10:00:53.296Z,9.68
2023-02-23T10:06:03.200Z,9.88
2023-02-23T10:11:18.563Z,9.43
2023-02-23T10:16:25.999Z,8.52
2023-02-23T10:21:37.591Z,8.35
2023-02-23T10:26:48.736Z,9.77
2023-02-23T10:31:58.358Z,8.13
2023-02-23T10:37:06.098Z,8.73
2023-02-23T10:42:17.074Z,8.55
2023-02-23T10:47:24.494Z,9.65
2023-02-23T10:52:41.536Z,8.35
2023-02-23T10:58:02.908Z,10.00
2023-02-23T11:03:22.898Z,8.93
2023-02-23T11:53:15.493Z,9.05
2023-02-23T11:58:27.155Z,7.68
2023-02-23T12:03:40.319Z,8.43
2023-02-23T12:08:57.551Z,8.10
2023-02-23T12:14:08.756Z,8.23
2023-02-23T12:19:28.901Z,8.05
2023-02-23T12:24:46.594Z,8.32
2023-02-23T12:30:03.590Z,8.63
2023-02-23T12:35:14.788Z,11.55
2023-02-23T12:40:28.145Z,9.27
2023-02-23T12:45:42.661Z,11.30
2023-02-23T12:50:53.211Z,11.35
2023-02-23T12:56:23.187Z,11.57
2023-02-23T13:01:32.898Z,10.63
2023-02-23T13:06:52.386Z,11.30
2023-02-23T13:12:15.028Z,11.10
2023-02-23T13:17:33.129Z,9.63
2023-02-23T13:23:43.268Z,11.07
2023-02-23T13:29:00.814Z,9.80
2023-02-23T13:40:31.521Z,11.05
2023-02-23T13:57:17.824Z,12.35
2023-02-23T14:02:35.187Z,11.38
2023-02-23T14:07:45.211Z,11.48
2023-02-23T14:13:09.861Z,12.85
2023-02-23T14:18:35.810Z,12.57
2023-02-23T14:23:55.756Z,13.18
2023-02-23T14:29:32.115Z,12.88
2023-02-23T14:35:02.426Z,13.55
2023-02-23T14:40:15.313Z,13.10
2023-02-23T14:45:27.525Z,13.43
2023-02-23T14:50:34.461Z,14.18
2023-02-23T14:55:44.814Z,14.52
2023-02-23T15:00:52.233Z,13.93
2023-02-23T15:06:06.279Z,13.32
2023-02-23T15:11:15.240Z,20.17
2023-02-23T15:16:28.845Z,18.55
2023-02-23T15:21:36.040Z,18.00
2023-02-23T15:26:44.060Z,16.45
2023-02-23T15:31:53.955Z,17.65
2023-02-23T15:37:04.874Z,18.23
2023-02-23T15:42:18.900Z,15.98
2023-02-23T15:47:28.648Z,18.48
2023-02-23T15:52:35.377Z,18.92
2023-02-23T15:57:49.500Z,21.85
2023-02-23T16:02:57.632Z,27.88
2023-02-23T16:08:08.008Z,27.30
2023-02-23T16:13:18.672Z,24.55
2023-02-23T16:18:29.136Z,23.20
2023-02-23T16:23:37.619Z,23.13
2023-02-23T16:28:47.003Z,22.10
2023-02-23T16:33:57.202Z,22.75
2023-02-23T16:39:06.509Z,20.75
2023-02-23T16:44:21.676Z,20.63
2023-02-23T16:49:32.265Z,21.90
2023-02-23T16:54:44.585Z,15.45
2023-02-23T16:59:52.418Z,16.42
2023-02-23T17:04:58.981Z,14.07
2023-02-23T17:10:03.882Z,15.07
2023-02-23T17:15:16.810Z,17.23
2023-02-23T17:20:21.572Z,16.17
2023-02-23T17:25:27.123Z,17.85
2023-02-23T17:30:33.429Z,16.80
2023-02-23T17:35:41.301Z,18.40
2023-02-23T17:40:46.023Z,18.52
2023-02-23T17:45:57.305Z,19.00
2023-02-23T17:51:04.129Z,20.50
2023-02-23T17:56:09.608Z,22.60
2023-02-23T18:01:16.158Z,21.25
2023-02-23T18:06:20.818Z,21.98
2023-02-23T18:11:25.710Z,22.58
2023-02-23T18:16:33.754Z,21.17
2023-02-23T18:21:40.952Z,20.42
2023-02-23T18:26:46.301Z,20.13
2023-02-23T18:31:52.475Z,21.77
2023-02-23T18:36:57.588Z,22.40
2023-02-23T18:42:04.422Z,21.70
2023-02-23T18:47:11.066Z,23.52
2023-02-23T18:52:15.551Z,22.15
2023-02-23T18:57:20.024Z,23.13
2023-02-23T19:02:27.443Z,23.45
2023-02-23T19:07:32.541Z,23.05
2023-02-23T19:12:37.164Z,22.70
2023-02-23T19:17:43.162Z,24.83
2023-02-23T19:22:48.158Z,24.90
2023-02-23T19:27:53.241Z,25.75
2023-02-23T19:33:01.098Z,28.63
2023-02-23T19:38:06.185Z,28.17
2023-02-23T19:43:12.648Z,28.87
2023-02-23T19:48:19.962Z,31.33
2023-02-23T19:53:24.491Z,36.17
2023-02-23T19:58:29.286Z,36.65
2023-02-23T20:03:35.791Z,32.65
2023-02-23T20:08:40.346Z,29.80
2023-02-23T20:13:44.776Z,25.10
2023-02-23T20:18:50.688Z,24.73
2023-02-23T20:29:00.272Z,22.67
2023-02-23T20:34:11.321Z,21.10
2023-02-23T20:39:16.897Z,19.42
2023-02-23T20:44:23.877Z,17.45
2023-02-23T20:49:29.858Z,17.10
2023-02-23T20:54:34.482Z,16.48
2023-02-23T20:59:39.092Z,17.58
2023-02-23T21:04:45.391Z,15.13
2023-02-23T21:09:49.852Z,16.17
2023-02-23T21:14:54.842Z,16.25
2023-02-23T21:20:00.661Z,15.82
2023-02-23T21:25:06.975Z,15.32
2023-02-23T21:30:16.402Z,18.63
2023-02-23T21:35:22.960Z,14.82
2023-02-23T21:40:27.505Z,14.30
2023-02-23T21:45:32.029Z,13.52
2023-02-23T21:50:37.851Z,15.02
2023-02-23T22:00:46.615Z,13.63
2023-02-23T22:05:52.477Z,13.65
2023-02-23T22:16:01.436Z,12.57
2023-02-23T22:21:07.919Z,12.03
2023-02-23T22:26:12.316Z,10.82
2023-02-23T22:31:16.868Z,11.63
2023-02-23T22:36:23.065Z,10.88
2023-02-23T22:41:29.647Z,11.27
2023-02-23T22:46:34.029Z,10.65
2023-02-23T22:51:40.287Z,11.95
2023-02-23T22:56:44.694Z,11.05
2023-02-23T23:01:50.516Z,11.35
2023-02-23T23:06:56.456Z,12.15
2023-02-23T23:12:00.963Z,10.57
2023-02-23T23:17:05.588Z,10.73
2023-02-23T23:22:14.559Z,10.25
2023-02-23T23:27:21.257Z,10.52
2023-02-23T23:32:27.818Z,10.15
2023-02-23T23:37:33.908Z,10.00
2023-02-23T23:47:42.625Z,8.93
2023-02-23T23:52:50.565Z,9.27
2023-02-23T23:57:54.807Z,9.73
